Time;durP1;ratioP1;P1;durP2;ratioP2;P2;SDS_P1;SDS_P2;PMS_P1;PMS_P2;Temp;Humidity;BMP_temperature;BMP_pressure;BME280_temperature;BME280_humidity;BME280_pressure;Samples;Min_cycle;Max_cycle;Signal;HPM_P1;HPM_P2
2023/09/24 00:01:20;;;;;;;7.13;2.80;;;12.50;99.90;;;;;;5050102;28;20535;-57
2023/09/24 00:03:46;;;;;;;5.75;3.00;;;12.50;99.90;;;;;;5051362;28;20559;-57
2023/09/24 00:06:12;;;;;;;5.78;3.45;;;12.50;99.90;;;;;;5051351;28;20165;-57
2023/09/24 00:08:38;;;;;;;5.43;2.92;;;12.50;99.90;;;;;;5051330;28;20174;-57
2023/09/24 00:11:04;;;;;;;9.38;3.35;;;12.50;99.90;;;;;;5051328;28;20231;-56
2023/09/24 00:13:33;;;;;;;5.90;3.78;;;;;;;;;;5051983;28;20202;-57
2023/09/24 00:16:07;;;;;;;6.22;3.38;;;12.40;99.90;;;;;;5052013;28;20190;-57
2023/09/24 00:18:33;;;;;;;7.57;3.67;;;12.40;99.90;;;;;;5051151;28;20191;-55
2023/09/24 00:21:00;;;;;;;11.43;4.45;;;12.40;99.90;;;;;;5051650;28;20197;-56
2023/09/24 00:23:27;;;;;;;10.43;4.00;;;12.40;99.90;;;;;;5051732;28;20167;-57
2023/09/24 00:25:55;;;;;;;7.38;3.38;;;12.40;99.90;;;;;;5051419;28;20171;-57
2023/09/24 00:28:21;;;;;;;6.93;2.97;;;12.40;99.90;;;;;;5051439;28;20171;-56
2023/09/24 00:30:48;;;;;;;9.50;4.25;;;12.40;99.90;;;;;;5051072;28;20640;-57
2023/09/24 00:33:13;;;;;;;9.38;3.92;;;12.30;99.90;;;;;;5051149;28;20667;-56
2023/09/24 00:35:39;;;;;;;10.20;3.33;;;12.30;99.90;;;;;;5049984;28;20178;-56
2023/09/24 00:38:07;;;;;;;8.52;3.47;;;;;;;;;;5050899;28;20194;-56
2023/09/24 00:40:32;;;;;;;8.63;3.70;;;12.20;99.90;;;;;;5051094;28;20195;-57
2023/09/24 00:42:58;;;;;;;9.80;3.75;;;12.20;99.90;;;;;;5051551;28;20297;-55
2023/09/24 00:45:25;;;;;;;8.43;3.13;;;12.20;99.90;;;;;;5054881;28;20577;-56
2023/09/24 00:47:53;;;;;;;5.75;3.85;;;12.10;99.90;;;;;;5054970;28;20571;-56
2023/09/24 00:50:18;;;;;;;14.25;8.07;;;12.10;99.90;;;;;;5054861;28;20163;-56
2023/09/24 00:52:46;;;;;;;11.50;5.47;;;12.10;99.90;;;;;;5054932;28;20163;-56
2023/09/24 00:55:13;;;;;;;10.70;5.45;;;12.00;99.90;;;;;;5054803;28;20582;-56
2023/09/24 00:57:40;;;;;;;12.00;4.80;;;12.00;99.90;;;;;;5053597;28;20209;-55
2023/09/24 01:00:17;;;;;;;9.27;3.53;;;12.00;99.90;;;;;;5054715;28;20715;-55
2023/09/24 01:02:46;;;;;;;5.75;3.15;;;12.00;99.90;;;;;;5054890;28;20177;-55
2023/09/24 01:05:14;;;;;;;7.43;3.70;;;12.00;99.90;;;;;;5054650;28;20257;-55
2023/09/24 01:07:41;;;;;;;5.55;3.17;;;12.00;99.90;;;;;;5054847;28;20216;-53
2023/09/24 01:10:11;;;;;;;7.80;4.05;;;11.80;99.90;;;;;;5054441;28;20174;-53
2023/09/24 01:12:39;;;;;;;10.90;3.40;;;;;;;;;;5054530;28;20710;-53
2023/09/24 01:15:08;;;;;;;11.50;4.53;;;11.90;99.90;;;;;;5054682;28;20631;-52
2023/09/24 01:17:35;;;;;;;10.45;4.82;;;11.90;99.90;;;;;;5054647;28;20630;-52
2023/09/24 01:20:01;;;;;;;12.63;4.88;;;11.90;99.90;;;;;;5054487;28;20210;-53
2023/09/24 01:22:28;;;;;;;8.30;4.28;;;11.90;99.90;;;;;;5055034;28;20163;-53
2023/09/24 01:24:55;;;;;;;8.55;3.78;;;11.90;99.90;;;;;;5054934;28;20167;-52
2023/09/24 01:27:22;;;;;;;11.70;3.88;;;11.80;99.90;;;;;;5054223;28;20225;-53
2023/09/24 01:29:48;;;;;;;9.32;4.30;;;11.80;99.90;;;;;;5052891;28;20163;-53
2023/09/24 01:32:15;;;;;;;8.82;4.43;;;11.80;99.90;;;;;;5054295;28;20701;-54
2023/09/24 01:34:40;;;;;;;5.50;3.30;;;11.80;99.90;;;;;;5054384;28;20171;-54
2023/09/24 01:37:08;;;;;;;10.40;3.65;;;;;;;;;;5053982;28;20216;-54
2023/09/24 01:39:36;;;;;;;6.28;3.75;;;11.80;99.90;;;;;;5054166;28;20616;-54
2023/09/24 01:42:02;;;;;;;8.38;3.58;;;11.80;99.90;;;;;;5053909;28;20547;-54
2023/09/24 01:44:28;;;;;;;6.97;3.67;;;11.70;99.90;;;;;;5054351;28;20655;-56
2023/09/24 01:46:53;;;;;;;7.03;3.70;;;11.70;99.90;;;;;;5052554;28;20311;-55
2023/09/24 01:49:19;;;;;;;6.93;3.50;;;11.70;99.90;;;;;;5053803;28;20648;-54
2023/09/24 01:51:45;;;;;;;9.85;5.43;;;11.70;99.90;;;;;;5054062;28;20524;-57
2023/09/24 01:54:11;;;;;;;6.93;3.83;;;11.70;99.90;;;;;;5053647;28;20171;-54
2023/09/24 01:56:36;;;;;;;6.80;3.58;;;11.70;99.90;;;;;;5054005;28;20504;-58
2023/09/24 01:59:06;;;;;;;9.45;3.85;;;11.60;99.90;;;;;;5053475;28;20202;-55
2023/09/24 02:01:35;;;;;;;5.57;3.83;;;11.60;99.90;;;;;;5053536;28;20163;-53
2023/09/24 02:04:03;;;;;;;8.15;4.00;;;11.60;99.90;;;;;;5052356;28;20201;-56
2023/09/24 02:06:29;;;;;;;7.20;3.83;;;11.60;99.90;;;;;;5052625;28;20198;-56
2023/09/24 02:08:55;;;;;;;10.85;3.38;;;11.60;99.90;;;;;;5053859;28;20198;-56
2023/09/24 02:11:21;;;;;;;10.35;4.45;;;11.50;99.90;;;;;;5053400;28;20214;-54
2023/09/24 02:13:46;;;;;;;5.38;3.70;;;11.50;99.90;;;;;;5053385;28;20579;-57
2023/09/24 02:16:12;;;;;;;5.07;3.90;;;11.50;99.90;;;;;;5053247;28;20170;-56
2023/09/24 02:18:38;;;;;;;5.65;3.42;;;11.50;99.90;;;;;;5053411;28;20272;-57
2023/09/24 02:21:14;;;;;;;5.43;3.50;;;11.40;99.90;;;;;;5053230;28;20170;-57
2023/09/24 02:23:39;;;;;;;8.77;3.28;;;11.40;99.90;;;;;;5053198;28;20162;-57
2023/09/24 02:26:07;;;;;;;17.08;3.28;;;11.40;99.90;;;;;;5053059;28;20166;-57
2023/09/24 02:28:33;;;;;;;6.40;3.63;;;11.40;99.90;;;;;;5053307;28;20178;-57
2023/09/24 02:30:59;;;;;;;9.10;3.70;;;11.40;99.90;;;;;;5053290;28;20203;-56
2023/09/24 02:33:24;;;;;;;8.85;3.63;;;11.40;99.90;;;;;;5053391;28;20194;-57
2023/09/24 02:35:50;;;;;;;4.35;3.00;;;11.30;99.90;;;;;;5052946;28;20620;-58
2023/09/24 02:38:16;;;;;;;4.82;3.50;;;11.30;99.90;;;;;;5052783;28;20195;-57
2023/09/24 02:40:41;;;;;;;8.50;3.75;;;11.30;99.90;;;;;;5052857;28;20197;-57
2023/09/24 02:43:07;;;;;;;5.45;3.65;;;11.30;99.90;;;;;;5052855;28;20248;-57
2023/09/24 02:45:33;;;;;;;8.82;3.95;;;11.20;99.90;;;;;;5052760;28;20268;-57
2023/09/24 02:47:59;;;;;;;12.38;3.95;;;11.30;99.90;;;;;;5052842;28;20169;-58
2023/09/24 02:50:27;;;;;;;7.65;4.05;;;11.20;99.90;;;;;;5053093;28;20167;-57
2023/09/24 02:53:00;;;;;;;6.75;3.67;;;11.20;99.90;;;;;;5052818;28;20167;-58
2023/09/24 02:55:28;;;;;;;6.43;3.92;;;11.20;99.90;;;;;;5052915;28;20569;-57
2023/09/24 02:57:53;;;;;;;5.47;3.22;;;11.20;99.90;;;;;;5052314;28;20690;-57
2023/09/24 03:00:27;;;;;;;9.68;3.97;;;11.20;99.90;;;;;;5052429;28;20178;-57
2023/09/24 03:02:58;;;;;;;10.55;3.33;;;11.10;99.90;;;;;;5052350;28;20171;-53
2023/09/24 03:05:24;;;;;;;6.00;3.75;;;11.10;99.90;;;;;;5052521;28;20244;-57
2023/09/24 03:07:51;;;;;;;6.13;3.60;;;11.10;99.90;;;;;;5051774;28;20190;-58
2023/09/24 03:10:18;;;;;;;7.18;3.47;;;11.10;99.90;;;;;;5052240;28;20170;-57
2023/09/24 03:12:44;;;;;;;7.13;3.47;;;11.10;99.90;;;;;;5052191;28;20163;-57
2023/09/24 03:15:10;;;;;;;5.95;3.28;;;11.00;99.90;;;;;;5052166;28;20253;-58
2023/09/24 03:17:37;;;;;;;8.45;3.53;;;11.00;99.90;;;;;;5052162;28;20270;-58
2023/09/24 03:20:05;;;;;;;8.88;3.70;;;11.00;99.90;;;;;;5051965;28;20213;-58
2023/09/24 03:22:30;;;;;;;6.65;3.33;;;11.00;99.90;;;;;;5052003;28;20159;-57
2023/09/24 03:24:57;;;;;;;6.38;2.90;;;11.00;99.90;;;;;;5052489;28;20165;-57
2023/09/24 03:27:22;;;;;;;7.93;3.42;;;11.00;99.90;;;;;;5052173;28;20174;-57
2023/09/24 03:29:48;;;;;;;7.00;2.90;;;10.90;99.90;;;;;;5051903;28;20166;-57
2023/09/24 03:32:14;;;;;;;4.60;3.20;;;10.90;99.90;;;;;;5051891;28;20209;-57
2023/09/24 03:34:40;;;;;;;7.32;3.50;;;10.90;99.90;;;;;;5051955;28;20217;-56
2023/09/24 03:37:09;;;;;;;7.03;3.55;;;10.90;99.90;;;;;;5052057;28;20171;-57
2023/09/24 03:39:35;;;;;;;4.75;3.10;;;10.90;99.90;;;;;;5051921;28;20207;-57
2023/09/24 03:42:01;;;;;;;5.57;2.88;;;10.90;99.90;;;;;;5051973;28;20563;-55
2023/09/24 03:44:26;;;;;;;5.70;2.95;;;10.80;99.90;;;;;;5052130;28;20171;-57
2023/09/24 03:46:52;;;;;;;5.10;3.15;;;10.80;99.90;;;;;;5051571;28;20623;-57
2023/09/24 03:49:17;;;;;;;3.42;2.85;;;10.90;99.90;;;;;;5051699;28;20170;-56
2023/09/24 03:51:43;;;;;;;9.05;3.63;;;10.90;99.90;;;;;;5051564;28;20158;-57
2023/09/24 03:54:08;;;;;;;4.65;3.08;;;10.90;99.90;;;;;;5050306;28;20170;-57
2023/09/24 03:56:34;;;;;;;4.07;2.85;;;10.80;99.90;;;;;;5051537;28;20209;-56
2023/09/24 03:58:59;;;;;;;12.77;3.20;;;10.80;99.90;;;;;;5051358;28;20210;-56
2023/09/24 04:01:25;;;;;;;6.60;3.80;;;10.80;99.90;;;;;;5051890;28;20198;-56
2023/09/24 04:03:50;;;;;;;3.92;2.70;;;10.80;99.90;;;;;;5051403;28;20185;-55
2023/09/24 04:06:17;;;;;;;4.65;2.60;;;10.70;99.90;;;;;;5051351;28;20171;-57
2023/09/24 04:08:42;;;;;;;6.90;2.97;;;10.70;99.90;;;;;;5051580;28;20171;-57
2023/09/24 04:11:11;;;;;;;6.45;2.90;;;10.70;99.90;;;;;;5051374;28;20194;-57
2023/09/24 04:13:38;;;;;;;6.13;2.95;;;10.70;99.90;;;;;;5051343;28;20174;-57
2023/09/24 04:16:12;;;;;;;6.30;3.08;;;10.70;99.90;;;;;;5051203;28;20177;-57
2023/09/24 04:18:38;;;;;;;7.20;3.00;;;10.70;99.90;;;;;;5050577;28;20198;-57
2023/09/24 04:21:04;;;;;;;5.28;3.33;;;10.60;99.90;;;;;;5051210;28;20167;-57
2023/09/24 04:23:29;;;;;;;5.85;3.28;;;10.60;99.90;;;;;;5051138;28;20167;-56
2023/09/24 04:25:55;;;;;;;5.13;2.90;;;;;;;;;;5051599;28;20181;-56
2023/09/24 04:28:21;;;;;;;5.43;3.17;;;10.60;99.90;;;;;;5051163;28;20594;-57
2023/09/24 04:30:46;;;;;;;6.40;2.65;;;10.60;99.90;;;;;;5051137;28;20174;-57
2023/09/24 04:33:12;;;;;;;10.00;2.92;;;10.60;99.90;;;;;;5051166;28;20219;-57
2023/09/24 04:35:38;;;;;;;7.80;3.35;;;10.60;99.90;;;;;;5051208;28;20167;-57
2023/09/24 04:38:05;;;;;;;5.88;3.70;;;10.60;99.90;;;;;;5051071;28;20173;-57
2023/09/24 04:40:34;;;;;;;5.78;3.42;;;10.60;99.90;;;;;;5051326;28;20185;-57
2023/09/24 04:42:59;;;;;;;6.13;3.35;;;10.50;99.90;;;;;;5051244;28;20232;-56
2023/09/24 04:45:25;;;;;;;6.40;3.55;;;10.50;99.90;;;;;;5051257;28;20632;-57
2023/09/24 04:47:51;;;;;;;9.93;3.10;;;10.50;99.90;;;;;;5050955;28;20640;-57
2023/09/24 04:50:17;;;;;;;6.78;3.28;;;10.50;99.90;;;;;;5050954;28;20193;-57
2023/09/24 04:52:46;;;;;;;4.95;3.13;;;10.40;99.90;;;;;;5050919;28;20167;-58
2023/09/24 04:55:15;;;;;;;6.45;2.60;;;10.50;99.90;;;;;;5050839;28;20175;-58
2023/09/24 04:57:44;;;;;;;5.20;2.75;;;10.40;99.90;;;;;;5051151;28;20213;-57
2023/09/24 05:00:10;;;;;;;7.28;3.00;;;10.50;99.90;;;;;;5050762;28;20198;-56
2023/09/24 05:02:36;;;;;;;33.88;18.30;;;10.50;99.90;;;;;;5051123;28;20221;-57
2023/09/24 05:05:02;;;;;;;7.18;4.53;;;10.50;99.90;;;;;;5050801;28;20167;-57
2023/09/24 05:07:27;;;;;;;13.13;6.57;;;10.40;99.90;;;;;;5051445;28;20504;-57
2023/09/24 05:09:53;;;;;;;16.27;7.78;;;10.40;99.90;;;;;;5050681;28;20557;-57
2023/09/24 05:12:18;;;;;;;13.05;7.72;;;10.40;99.90;;;;;;5050725;28;20179;-56
2023/09/24 05:14:44;;;;;;;29.58;15.13;;;10.40;99.90;;;;;;5050712;28;20220;-57
2023/09/24 05:17:10;;;;;;;47.92;26.45;;;10.40;99.90;;;;;;5049555;28;20192;-56
2023/09/24 05:19:35;;;;;;;10.63;5.53;;;;;;;;;;5050561;28;20253;-55
2023/09/24 05:22:01;;;;;;;7.38;4.50;;;10.40;99.90;;;;;;5050698;28;20171;-56
2023/09/24 05:24:27;;;;;;;7.15;3.03;;;10.30;99.90;;;;;;5051093;28;20630;-57
2023/09/24 05:26:52;;;;;;;8.32;4.22;;;10.30;99.90;;;;;;5050824;28;20194;-56
2023/09/24 05:29:18;;;;;;;9.18;5.70;;;10.40;99.90;;;;;;5051089;28;20175;-57
2023/09/24 05:31:43;;;;;;;9.40;3.50;;;10.40;99.90;;;;;;5054112;28;20678;-54
2023/09/24 05:34:09;;;;;;;6.38;2.60;;;10.30;99.90;;;;;;5054057;28;20171;-57
2023/09/24 05:36:34;;;;;;;93.43;45.03;;;10.30;99.90;;;;;;5054073;28;20174;-57
2023/09/24 05:39:00;;;;;;;11.88;7.32;;;10.30;99.90;;;;;;5053894;28;20683;-56
2023/09/24 05:41:25;;;;;;;29.83;15.88;;;10.30;99.90;;;;;;5054558;28;20189;-56
2023/09/24 05:43:54;;;;;;;39.03;17.60;;;10.30;99.90;;;;;;5052717;28;20263;-56
2023/09/24 05:46:19;;;;;;;105.32;52.60;;;10.30;99.90;;;;;;5053831;28;20218;-57
2023/09/24 05:48:45;;;;;;;49.50;26.60;;;10.40;99.90;;;;;;5053899;28;20228;-56
2023/09/24 05:51:11;;;;;;;6.20;3.90;;;10.40;99.90;;;;;;5054081;28;20518;-55
2023/09/24 05:53:36;;;;;;;10.60;5.60;;;10.40;99.90;;;;;;5052559;28;20189;-53
2023/09/24 05:56:03;;;;;;;15.27;7.55;;;10.50;99.90;;;;;;5053634;28;20175;-53
2023/09/24 05:58:29;;;;;;;9.32;5.10;;;10.50;99.90;;;;;;5053584;28;20206;-54
2023/09/24 06:00:58;;;;;;;13.75;7.88;;;10.50;99.90;;;;;;5054147;28;20166;-54
2023/09/24 06:03:23;;;;;;;7.13;4.22;;;10.50;99.90;;;;;;5053997;28;20159;-54
2023/09/24 06:05:49;;;;;;;9.85;3.80;;;10.60;99.90;;;;;;5053526;28;20169;-54
2023/09/24 06:08:15;;;;;;;11.02;7.22;;;10.60;99.90;;;;;;5053473;28;20175;-54
2023/09/24 06:10:44;;;;;;;19.60;11.45;;;10.60;99.90;;;;;;5053458;28;20644;-56
2023/09/24 06:13:15;;;;;;;12.23;7.07;;;10.70;99.90;;;;;;5053460;28;20254;-56
2023/09/24 06:15:41;;;;;;;37.22;20.98;;;10.70;99.90;;;;;;5053535;28;20179;-53
2023/09/24 06:18:08;;;;;;;31.75;17.38;;;10.70;99.90;;;;;;5053318;28;20170;-56
2023/09/24 06:20:37;;;;;;;17.25;9.82;;;10.80;99.90;;;;;;5053245;28;20236;-54
2023/09/24 06:23:03;;;;;;;6.03;3.85;;;10.90;99.90;;;;;;5053416;28;20237;-57
2023/09/24 06:25:29;;;;;;;9.68;5.45;;;10.80;99.90;;;;;;5051864;28;20643;-56
2023/09/24 06:27:54;;;;;;;6.60;2.40;;;10.90;99.90;;;;;;5053519;28;20171;-55
2023/09/24 06:30:20;;;;;;;5.15;2.50;;;10.90;99.90;;;;;;5052914;28;20716;-56
2023/09/24 06:32:45;;;;;;;5.85;2.00;;;11.00;99.90;;;;;;5052982;28;20198;-54
2023/09/24 06:35:11;;;;;;;4.93;2.13;;;11.00;99.90;;;;;;5052925;28;20167;-54
2023/09/24 06:37:36;;;;;;;6.10;3.15;;;11.00;99.90;;;;;;5052930;28;20170;-56
2023/09/24 06:40:03;;;;;;;7.70;2.25;;;11.10;99.90;;;;;;5052761;28;20217;-56
2023/09/24 06:42:28;;;;;;;5.88;2.60;;;11.20;99.90;;;;;;5052097;28;20163;-56
2023/09/24 06:44:54;;;;;;;4.50;2.20;;;;;;;;;;5053115;28;20200;-56
2023/09/24 06:47:20;;;;;;;3.50;1.70;;;11.20;99.90;;;;;;5052228;28;20210;-56
2023/09/24 06:49:49;;;;;;;4.18;2.40;;;11.30;99.90;;;;;;5052728;28;20554;-53
2023/09/24 06:52:15;;;;;;;6.88;2.45;;;11.50;99.90;;;;;;5052902;28;20175;-53
2023/09/24 06:54:41;;;;;;;6.70;2.47;;;11.60;99.90;;;;;;5050769;28;20838;-54
2023/09/24 06:57:06;;;;;;;5.30;3.38;;;11.60;99.90;;;;;;5052799;28;20170;-56
2023/09/24 06:59:32;;;;;;;4.90;2.50;;;11.70;99.90;;;;;;5052354;28;20567;-57
2023/09/24 07:01:57;;;;;;;5.47;2.67;;;11.90;99.90;;;;;;5052744;28;20171;-57
2023/09/24 07:04:23;;;;;;;3.67;2.80;;;12.00;99.90;;;;;;5052357;28;20249;-56
2023/09/24 07:06:51;;;;;;;7.35;2.40;;;12.10;99.90;;;;;;5052356;28;20572;-54
2023/09/24 07:09:16;;;;;;;6.32;3.47;;;12.20;99.90;;;;;;5052187;28;20632;-56
2023/09/24 07:11:42;;;;;;;8.32;2.53;;;12.40;99.90;;;;;;5052320;28;20174;-54
2023/09/24 07:14:07;;;;;;;3.28;2.00;;;12.60;99.90;;;;;;5052254;28;20573;-54
2023/09/24 07:16:37;;;;;;;4.25;2.20;;;12.70;99.90;;;;;;5052133;28;20579;-55
2023/09/24 07:19:03;;;;;;;6.20;2.45;;;12.90;99.90;;;;;;5051997;28;20209;-53
2023/09/24 07:21:30;;;;;;;5.72;2.60;;;13.00;99.90;;;;;;5051750;28;20166;-53
2023/09/24 07:23:58;;;;;;;5.57;2.50;;;13.00;99.90;;;;;;5052268;28;20624;-53
2023/09/24 07:26:24;;;;;;;5.32;3.15;;;13.20;99.90;;;;;;5052550;28;20216;-55
2023/09/24 07:28:50;;;;;;;3.72;2.33;;;13.20;99.90;;;;;;5052220;28;20170;-54
2023/09/24 07:31:19;;;;;;;5.65;2.47;;;13.30;99.90;;;;;;5051852;28;20224;-57
2023/09/24 07:33:46;;;;;;;6.28;2.15;;;13.50;99.90;;;;;;5051685;28;20258;-56
2023/09/24 07:36:12;;;;;;;6.13;2.33;;;13.60;99.90;;;;;;5051847;28;20195;-57
2023/09/24 07:38:39;;;;;;;3.95;2.42;;;13.70;99.90;;;;;;5051691;28;20289;-56
2023/09/24 07:41:07;;;;;;;4.90;2.58;;;13.90;99.90;;;;;;5051977;28;20202;-57
2023/09/24 07:43:36;;;;;;;3.13;1.70;;;13.90;99.90;;;;;;5051658;28;20607;-56
2023/09/24 07:46:03;;;;;;;11.38;2.53;;;14.00;99.90;;;;;;5051562;28;20798;-54
2023/09/24 07:48:30;;;;;;;4.25;1.52;;;;;;;;;;5051420;28;20257;-53
2023/09/24 07:50:56;;;;;;;2.67;1.75;;;14.20;99.90;;;;;;5051354;28;20162;-57
2023/09/24 07:53:23;;;;;;;4.45;1.75;;;14.30;99.90;;;;;;5051485;28;20289;-56
2023/09/24 07:55:56;;;;;;;2.75;1.50;;;14.30;99.90;;;;;;5051438;28;20244;-56
2023/09/24 07:58:23;;;;;;;3.97;2.05;;;14.40;99.90;;;;;;5051085;28;20257;-57
2023/09/24 08:00:49;;;;;;;4.38;1.77;;;14.60;99.90;;;;;;5051537;28;20193;-56
2023/09/24 08:03:15;;;;;;;5.80;2.50;;;14.80;99.90;;;;;;5051190;28;20540;-56
2023/09/24 08:05:41;;;;;;;5.63;1.80;;;14.90;99.90;;;;;;5050107;28;20246;-53
2023/09/24 08:08:06;;;;;;;4.63;1.50;;;14.80;99.90;;;;;;5050862;28;20682;-56
2023/09/24 08:10:32;;;;;;;3.40;1.40;;;14.80;99.90;;;;;;5051130;28;20209;-56
2023/09/24 08:12:58;;;;;;;3.00;1.58;;;15.00;99.90;;;;;;5051443;28;20201;-53
2023/09/24 08:15:23;;;;;;;4.00;1.60;;;15.10;99.90;;;;;;5051393;28;20607;-57
2023/09/24 08:17:49;;;;;;;3.20;1.80;;;15.30;99.90;;;;;;5049858;28;20533;-56
2023/09/24 08:20:15;;;;;;;3.03;1.55;;;15.40;99.90;;;;;;5051366;28;20206;-56
2023/09/24 08:22:41;;;;;;;4.10;1.90;;;15.20;99.90;;;;;;5051426;28;20181;-57
2023/09/24 08:25:07;;;;;;;3.60;1.50;;;15.40;99.90;;;;;;5051251;28;20202;-57
2023/09/24 08:27:33;;;;;;;4.13;1.80;;;15.60;99.90;;;;;;5050937;28;20163;-57
2023/09/24 08:29:58;;;;;;;3.72;1.80;;;15.70;99.90;;;;;;5051311;28;20196;-57
2023/09/24 08:32:24;;;;;;;3.08;1.45;;;;;;;;;;5051813;28;20258;-57
2023/09/24 08:34:50;;;;;;;5.05;2.05;;;15.90;99.90;;;;;;5051169;28;20198;-56
2023/09/24 08:37:15;;;;;;;4.72;2.10;;;16.00;99.90;;;;;;5051002;28;20550;-57
2023/09/24 08:39:42;;;;;;;3.20;1.70;;;16.10;99.90;;;;;;5050931;28;20210;-57
2023/09/24 08:42:10;;;;;;;4.18;2.38;;;16.20;99.90;;;;;;5050919;28;20167;-56
2023/09/24 08:44:39;;;;;;;3.75;1.88;;;16.30;99.90;;;;;;5051143;28;20221;-56
2023/09/24 08:47:05;;;;;;;7.22;1.98;;;16.40;99.90;;;;;;5050829;28;20215;-55
2023/09/24 08:49:31;;;;;;;3.60;2.13;;;16.50;99.90;;;;;;5051105;28;20266;-54
2023/09/24 08:51:58;;;;;;;5.03;1.80;;;16.60;99.90;;;;;;5051395;28;20159;-55
2023/09/24 08:54:24;;;;;;;7.03;2.03;;;16.80;99.90;;;;;;5051294;28;20163;-54
2023/09/24 08:56:50;;;;;;;2.88;1.58;;;16.80;99.90;;;;;;5050669;28;20224;-54
2023/09/24 08:59:16;;;;;;;7.97;1.50;;;16.80;99.90;;;;;;5050853;28;20622;-55
2023/09/24 09:01:41;;;;;;;5.22;1.75;;;16.90;99.90;;;;;;5050714;28;20167;-55
2023/09/24 09:04:07;;;;;;;5.53;1.85;;;17.10;99.90;;;;;;5050759;28;20216;-56
2023/09/24 09:06:35;;;;;;;4.35;1.90;;;17.00;99.90;;;;;;5054089;28;20190;-56
2023/09/24 09:09:01;;;;;;;4.53;1.60;;;17.10;99.90;;;;;;5054333;28;20167;-53
2023/09/24 09:11:40;;;;;;;5.93;1.77;;;17.20;99.90;;;;;;5054904;28;20166;-56
2023/09/24 09:14:06;;;;;;;1.88;1.42;;;17.30;99.90;;;;;;5052844;28;20168;-57
2023/09/24 09:16:33;;;;;;;5.72;1.60;;;17.40;99.90;;;;;;5054636;28;20182;-57
2023/09/24 09:19:02;;;;;;;2.78;1.67;;;17.50;99.90;;;;;;5054073;28;20202;-56
2023/09/24 09:21:29;;;;;;;4.85;1.40;;;;;;;;;;5054119;28;20171;-55
2023/09/24 09:23:55;;;;;;;2.33;1.45;;;;;;;;;;5054407;28;20179;-56
2023/09/24 09:26:30;;;;;;;2.65;1.23;;;17.70;99.90;;;;;;5053866;28;20174;-56
2023/09/24 09:28:56;;;;;;;2.13;1.30;;;;;;;;;;5054467;28;20206;-56
2023/09/24 09:31:22;;;;;;;2.55;1.45;;;17.80;99.90;;;;;;5053310;28;20596;-56
2023/09/24 09:33:48;;;;;;;4.45;1.42;;;17.80;99.90;;;;;;5053876;28;20178;-57
2023/09/24 09:36:19;;;;;;;6.10;2.63;;;17.80;99.90;;;;;;5054198;28;20175;-57
2023/09/24 09:38:45;;;;;;;3.08;1.70;;;17.70;99.90;;;;;;5052701;28;20194;-57
2023/09/24 09:41:11;;;;;;;2.75;1.30;;;17.90;99.90;;;;;;5053982;28;20258;-57
2023/09/24 09:43:38;;;;;;;5.93;1.95;;;18.10;99.90;;;;;;5053956;28;20167;-56
2023/09/24 09:46:09;;;;;;;3.70;1.85;;;18.00;99.90;;;;;;5053469;28;20229;-55
2023/09/24 09:48:37;;;;;;;3.08;1.55;;;18.10;99.90;;;;;;5053594;28;20625;-53
2023/09/24 09:51:08;;;;;;;11.63;4.78;;;18.30;99.90;;;;;;5052956;28;20174;-55
2023/09/24 09:53:35;;;;;;;11.43;1.85;;;18.40;99.90;;;;;;5053076;28;20181;-57
2023/09/24 09:56:04;;;;;;;2.40;1.40;;;18.40;99.90;;;;;;5053528;28;20163;-57
2023/09/24 09:58:31;;;;;;;3.83;1.80;;;18.40;99.90;;;;;;5053674;28;20211;-56
2023/09/24 10:01:00;;;;;;;5.20;2.13;;;;;;;;;;5053468;28;20249;-55
2023/09/24 10:03:27;;;;;;;2.67;1.67;;;18.50;99.90;;;;;;5053044;28;20182;-56
2023/09/24 10:05:54;;;;;;;2.83;1.30;;;18.60;99.90;;;;;;5053834;28;20159;-56
2023/09/24 10:08:42;;;;;;;4.35;2.05;;;18.80;99.90;;;;;;5052974;28;20241;-57
2023/09/24 10:11:32;;;;;;;5.00;2.58;;;18.90;99.90;;;;;;5052701;28;20162;-57
2023/09/24 10:13:58;;;;;;;3.92;1.27;;;19.00;99.90;;;;;;5052368;28;20200;-54
2023/09/24 10:16:24;;;;;;;3.13;1.13;;;18.70;99.90;;;;;;5052168;28;20635;-57
2023/09/24 10:18:58;;;;;;;5.00;2.00;;;18.90;99.90;;;;;;5052105;28;20202;-57
2023/09/24 10:21:32;;;;;;;7.30;4.32;;;19.20;99.90;;;;;;5053389;28;20166;-56
2023/09/24 10:24:18;;;;;;;7.43;4.38;;;19.10;99.90;;;;;;5053012;28;20202;-56
2023/09/24 10:26:51;;;;;;;5.38;2.28;;;19.20;99.90;;;;;;5042119;28;20251;-57
2023/09/24 10:29:38;;;;;;;2.13;1.63;;;19.40;99.90;;;;;;5051432;28;20233;-58
2023/09/24 10:32:06;;;;;;;9.75;4.78;;;19.40;99.90;;;;;;5042017;28;20187;-58
2023/09/24 10:34:51;;;;;;;3.88;2.05;;;19.30;99.90;;;;;;5052458;28;20171;-57
2023/09/24 10:37:20;;;;;;;3.88;1.80;;;19.50;99.90;;;;;;5052687;28;20174;-57
2023/09/24 10:40:14;;;;;;;4.60;1.83;;;19.50;99.90;;;;;;5052056;28;20234;-56
2023/09/24 10:42:44;;;;;;;4.18;1.70;;;19.70;99.90;;;;;;5050084;28;20179;-57
2023/09/24 10:45:10;;;;;;;11.02;4.57;;;19.80;99.90;;;;;;5052309;28;20181;-54
2023/09/24 10:47:40;;;;;;;3.67;1.70;;;19.80;99.90;;;;;;5051006;28;20219;-54
2023/09/24 10:50:11;;;;;;;5.60;1.80;;;19.80;99.90;;;;;;5051507;28;20687;-56
2023/09/24 10:52:58;;;;;;;4.75;2.28;;;19.50;99.90;;;;;;5050406;28;20167;-57
2023/09/24 10:55:27;;;;;;;5.28;1.83;;;19.50;99.90;;;;;;5051786;28;20220;-57
2023/09/24 10:57:53;;;;;;;3.78;1.92;;;;;;;;;;5052454;28;20174;-57
2023/09/24 11:00:20;;;;;;;6.10;1.88;;;19.90;99.90;;;;;;5051694;28;20202;-56
2023/09/24 11:02:57;;;;;;;3.92;1.67;;;19.80;99.90;;;;;;5051661;28;20498;-59
2023/09/24 11:05:23;;;;;;;5.43;1.50;;;;;;;;;;5052442;28;20601;-59
2023/09/24 11:07:49;;;;;;;3.33;1.73;;;19.80;99.90;;;;;;5052169;28;20312;-57
2023/09/24 11:10:25;;;;;;;4.82;1.63;;;20.00;99.90;;;;;;5052050;28;20193;-59
2023/09/24 11:12:53;;;;;;;6.85;2.90;;;20.00;99.90;;;;;;5052111;28;20174;-59
2023/09/24 11:15:19;;;;;;;2.70;1.70;;;;;;;;;;5051225;28;20201;-60
2023/09/24 11:17:46;;;;;;;3.95;1.67;;;19.80;99.90;;;;;;5051619;28;20170;-60
2023/09/24 11:20:12;;;;;;;4.97;2.15;;;19.90;99.90;;;;;;5052058;28;20264;-56
2023/09/24 11:22:39;;;;;;;3.58;1.52;;;19.70;99.90;;;;;;5051722;28;20244;-60
2023/09/24 11:25:09;;;;;;;5.32;1.58;;;19.90;99.90;;;;;;5051751;28;20182;-59
2023/09/24 11:27:45;;;;;;;10.80;4.03;;;20.10;99.90;;;;;;5051400;28;20159;-59
2023/09/24 11:30:11;;;;;;;3.75;1.83;;;20.10;99.90;;;;;;5050442;28;20639;-60
2023/09/24 11:32:37;;;;;;;4.72;1.63;;;20.20;99.90;;;;;;5051080;28;20167;-61
2023/09/24 11:35:13;;;;;;;5.35;2.03;;;20.20;99.90;;;;;;5051414;28;20241;-60
2023/09/24 11:37:50;;;;;;;3.30;1.63;;;20.20;99.90;;;;;;5050727;28;20173;-59
2023/09/24 11:40:24;;;;;;;2.35;1.27;;;20.20;99.90;;;;;;5049133;28;20251;-60
2023/09/24 11:43:01;;;;;;;3.63;1.40;;;20.40;99.90;;;;;;5050137;28;20190;-60
2023/09/24 11:45:47;;;;;;;3.88;1.77;;;20.40;99.90;;;;;;5050715;28;20166;-58
2023/09/24 11:48:18;;;;;;;4.35;2.30;;;20.50;99.90;;;;;;5050024;28;20191;-57
2023/09/24 11:50:53;;;;;;;4.72;2.10;;;20.60;99.90;;;;;;5051139;28;20197;-58
2023/09/24 11:53:20;;;;;;;3.08;1.40;;;20.80;99.90;;;;;;5050723;28;20170;-59
2023/09/24 11:55:48;;;;;;;3.42;1.15;;;20.60;99.90;;;;;;5049894;28;20538;-57
2023/09/24 11:58:13;;;;;;;2.92;1.40;;;20.50;99.90;;;;;;5049780;28;20158;-59
2023/09/24 12:00:43;;;;;;;3.13;1.25;;;20.40;99.90;;;;;;5049335;28;20178;-58
2023/09/24 12:03:09;;;;;;;5.15;1.70;;;20.40;99.90;;;;;;5049612;28;20611;-59
2023/09/24 12:05:35;;;;;;;2.30;1.20;;;20.60;99.90;;;;;;5049666;28;20163;-58
2023/09/24 12:08:03;;;;;;;3.00;1.27;;;20.80;99.90;;;;;;5050285;28;20237;-57
2023/09/24 12:10:29;;;;;;;2.70;1.30;;;20.80;99.90;;;;;;5050084;28;20374;-59
2023/09/24 12:13:01;;;;;;;4.30;1.30;;;20.90;99.90;;;;;;5051262;28;20166;-59
2023/09/24 12:15:29;;;;;;;3.17;1.50;;;20.80;99.90;;;;;;5051161;28;20246;-58
2023/09/24 12:17:56;;;;;;;2.40;1.45;;;20.90;99.90;;;;;;5050562;28;20694;-59
2023/09/24 12:20:22;;;;;;;3.15;1.63;;;20.80;99.90;;;;;;5050438;28;20217;-60
2023/09/24 12:22:48;;;;;;;1.58;1.00;;;;;;;;;;5050313;28;20526;-61
2023/09/24 12:25:14;;;;;;;2.05;1.10;;;;;;;;;;5050570;28;20171;-59
2023/09/24 12:27:40;;;;;;;2.25;1.25;;;21.00;99.90;;;;;;5049571;28;20185;-55
2023/09/24 12:30:11;;;;;;;2.53;0.90;;;20.90;99.90;;;;;;5050104;28;20175;-56
2023/09/24 12:32:40;;;;;;;3.78;1.40;;;21.10;99.90;;;;;;5050256;28;20258;-58
2023/09/24 12:35:07;;;;;;;2.95;1.30;;;;;;;;;;5050567;28;20167;-59
2023/09/24 12:37:34;;;;;;;1.40;1.13;;;21.20;99.90;;;;;;5050084;28;20181;-60
2023/09/24 12:40:00;;;;;;;0.88;0.82;;;21.20;99.90;;;;;;5051291;28;20300;-54
2023/09/24 12:42:28;;;;;;;1.88;1.27;;;21.30;99.90;;;;;;5054704;28;20163;-55
2023/09/24 12:44:54;;;;;;;3.70;1.40;;;21.20;99.90;;;;;;5054633;28;20179;-54
2023/09/24 12:47:20;;;;;;;2.67;1.23;;;21.20;99.90;;;;;;5054895;28;20296;-55
2023/09/24 12:49:46;;;;;;;2.55;1.35;;;21.40;99.90;;;;;;5054459;28;20167;-54
2023/09/24 12:52:12;;;;;;;1.65;1.25;;;21.40;99.70;;;;;;5054357;28;20300;-54